createdAt,value
2018-11-06T00:01:09.956Z,3.00
2018-11-06T00:03:50.656Z,2.33
2018-11-06T00:06:23.079Z,2.83
2018-11-06T00:08:56.089Z,2.67
2018-11-06T00:11:28.661Z,2.70
2018-11-06T00:14:01.324Z,2.37
2018-11-06T00:16:34.307Z,2.77
2018-11-06T00:19:06.976Z,2.47
2018-11-06T00:21:39.604Z,2.07
2018-11-06T00:24:12.255Z,2.70
2018-11-06T00:26:45.165Z,2.50
2018-11-06T00:29:17.498Z,2.47
2018-11-06T00:31:49.770Z,2.50
2018-11-06T00:34:22.981Z,2.37
2018-11-06T00:36:55.681Z,2.63
2018-11-06T00:39:28.661Z,2.53
2018-11-06T00:42:01.597Z,2.63
2018-11-06T00:44:34.318Z,2.27
2018-11-06T00:47:07.181Z,2.53
2018-11-06T00:49:39.562Z,3.10
2018-11-06T00:52:12.200Z,2.90
2018-11-06T00:54:44.802Z,4.67
2018-11-06T00:57:17.426Z,4.27
2018-11-06T00:59:51.327Z,4.03
2018-11-06T01:02:24.155Z,3.87
2018-11-06T01:04:56.713Z,3.53
2018-11-06T01:07:29.593Z,8.57
2018-11-06T01:10:01.904Z,8.80
2018-11-06T01:12:34.953Z,9.57
2018-11-06T01:15:08.488Z,8.07
2018-11-06T01:17:41.940Z,8.60
2018-11-06T01:20:16.170Z,10.63
2018-11-06T01:22:49.065Z,10.10
2018-11-06T01:25:22.289Z,9.23
2018-11-06T01:27:55.156Z,10.30
2018-11-06T01:30:27.744Z,9.07
2018-11-06T01:33:00.710Z,7.70
2018-11-06T01:35:33.565Z,8.20
2018-11-06T01:38:06.160Z,6.23
2018-11-06T01:40:38.544Z,8.40
2018-11-06T01:43:10.952Z,10.57
2018-11-06T01:45:43.670Z,10.33
2018-11-06T01:48:16.294Z,10.20
2018-11-06T01:50:48.797Z,6.93
2018-11-06T01:53:21.221Z,5.20
2018-11-06T01:55:53.689Z,4.93
2018-11-06T01:58:26.587Z,3.87
2018-11-06T02:00:59.008Z,4.87
2018-11-06T02:03:31.788Z,7.97
2018-11-06T02:06:04.531Z,12.57
2018-11-06T02:08:37.108Z,16.23
2018-11-06T02:11:09.738Z,20.67
2018-11-06T02:13:42.678Z,24.77
2018-11-06T02:16:14.921Z,25.93
2018-11-06T02:18:47.735Z,22.43
2018-11-06T02:21:20.149Z,25.27
2018-11-06T02:23:52.596Z,30.30
2018-11-06T02:26:25.198Z,33.00
2018-11-06T02:28:58.162Z,25.33
2018-11-06T02:31:31.718Z,17.17
2018-11-06T02:34:04.313Z,39.30
2018-11-06T02:36:36.896Z,31.57
2018-11-06T02:39:11.595Z,29.43
2018-11-06T02:41:44.398Z,16.30
2018-11-06T02:44:16.968Z,14.97
2018-11-06T02:46:49.072Z,13.90
2018-11-06T02:49:21.587Z,10.43
2018-11-06T02:51:54.249Z,8.40
2018-11-06T02:54:26.873Z,8.80
2018-11-06T02:56:59.251Z,9.97
2018-11-06T02:59:32.257Z,10.40
2018-11-06T03:02:04.951Z,5.50
2018-11-06T03:04:37.244Z,6.70
2018-11-06T03:07:09.961Z,6.47
2018-11-06T03:09:42.439Z,7.47
2018-11-06T03:12:14.620Z,7.83
2018-11-06T03:14:47.610Z,9.40
2018-11-06T03:17:20.284Z,12.27
2018-11-06T03:19:52.773Z,11.43
2018-11-06T03:22:25.160Z,8.17
2018-11-06T03:24:57.759Z,8.10
2018-11-06T03:27:30.205Z,6.87
2018-11-06T03:30:02.798Z,7.20
2018-11-06T03:32:35.400Z,7.27
2018-11-06T03:35:08.664Z,6.80
2018-11-06T03:37:41.934Z,7.20
2018-11-06T03:40:15.243Z,6.97
2018-11-06T03:42:47.802Z,6.50
2018-11-06T03:45:20.481Z,6.00
2018-11-06T03:47:52.919Z,6.80
2018-11-06T03:50:25.256Z,6.30
2018-11-06T03:52:57.896Z,7.00
2018-11-06T03:55:30.508Z,6.80
2018-11-06T03:58:02.992Z,6.93
2018-11-06T04:00:35.502Z,7.50
2018-11-06T04:03:08.144Z,7.40
2018-11-06T04:05:40.798Z,7.07
2018-11-06T04:08:14.203Z,7.10
2018-11-06T04:10:46.655Z,6.80
2018-11-06T04:13:19.186Z,7.10
2018-11-06T04:15:51.849Z,6.13
2018-11-06T04:18:24.356Z,6.90
2018-11-06T04:20:56.569Z,9.07
2018-11-06T04:23:28.967Z,8.90
2018-11-06T04:26:01.364Z,7.90
2018-11-06T04:28:33.712Z,5.73
2018-11-06T04:31:06.754Z,6.07
2018-11-06T04:33:39.146Z,6.20
2018-11-06T04:36:11.524Z,6.23
2018-11-06T04:38:43.926Z,5.60
2018-11-06T04:41:16.728Z,4.50
2018-11-06T04:43:49.474Z,4.90
2018-11-06T04:46:21.805Z,4.87
2018-11-06T04:48:54.545Z,4.67
2018-11-06T04:51:27.326Z,7.40
2018-11-06T04:54:01.018Z,4.73
2018-11-06T04:56:34.060Z,5.63
2018-11-06T04:59:07.195Z,5.73
2018-11-06T05:01:39.457Z,5.90
2018-11-06T05:04:12.586Z,7.37
2018-11-06T05:06:45.667Z,6.20
2018-11-06T05:09:18.605Z,7.10
2018-11-06T05:11:51.473Z,7.27
2018-11-06T05:14:23.948Z,7.07
2018-11-06T05:16:56.727Z,6.57
2018-11-06T05:19:29.021Z,6.37
2018-11-06T05:22:01.504Z,8.63
2018-11-06T05:24:34.331Z,7.30
2018-11-06T05:27:06.802Z,6.97
2018-11-06T05:29:38.722Z,6.93
2018-11-06T05:32:10.825Z,6.53
2018-11-06T05:34:43.113Z,6.37
2018-11-06T05:37:16.082Z,10.80
2018-11-06T05:39:57.686Z,8.37
2018-11-06T05:42:30.115Z,7.50
2018-11-06T05:45:02.536Z,9.20
2018-11-06T05:47:35.247Z,8.00
2018-11-06T05:50:07.723Z,11.27
2018-11-06T05:52:40.150Z,13.17
2018-11-06T05:55:12.583Z,13.07
2018-11-06T05:57:44.817Z,10.57
2018-11-06T06:00:17.333Z,9.43
2018-11-06T06:02:49.709Z,10.00
2018-11-06T06:05:22.321Z,8.00
2018-11-06T06:07:54.955Z,8.83
2018-11-06T06:10:27.102Z,7.77
2018-11-06T06:12:59.413Z,6.93
2018-11-06T06:15:32.118Z,7.80
2018-11-06T06:18:04.841Z,8.50
2018-11-06T06:20:37.144Z,8.77
2018-11-06T06:23:09.460Z,8.20
2018-11-06T06:25:42.326Z,8.53
2018-11-06T06:28:14.735Z,6.73
2018-11-06T06:30:47.630Z,6.60
2018-11-06T06:33:20.099Z,6.57
2018-11-06T06:35:52.757Z,6.10
2018-11-06T06:38:25.175Z,5.50
2018-11-06T06:40:58.052Z,6.80
2018-11-06T06:43:30.658Z,7.50
2018-11-06T06:46:03.535Z,8.07
2018-11-06T06:48:36.213Z,6.10
2018-11-06T06:51:10.077Z,7.17
2018-11-06T06:53:42.483Z,6.00
2018-11-06T06:56:15.276Z,7.30
2018-11-06T06:58:48.476Z,6.53
2018-11-06T07:01:20.872Z,5.63
2018-11-06T07:03:53.757Z,7.00
2018-11-06T07:06:26.488Z,6.30
2018-11-06T07:08:59.374Z,8.10
2018-11-06T07:11:31.837Z,6.80
2018-11-06T07:14:04.425Z,8.63
2018-11-06T07:16:37.132Z,9.90
2018-11-06T07:19:10.314Z,8.40
2018-11-06T07:21:43.389Z,8.50
2018-11-06T07:24:16.201Z,7.90
2018-11-06T07:26:49.134Z,7.33
2018-11-06T07:29:21.719Z,7.70
2018-11-06T07:31:54.329Z,9.60
2018-11-06T07:34:26.738Z,7.63
2018-11-06T07:36:59.427Z,8.43
2018-11-06T07:39:48.320Z,8.37
2018-11-06T07:42:20.966Z,11.77
2018-11-06T07:44:53.512Z,10.67
2018-11-06T07:47:25.991Z,8.60
2018-11-06T07:49:58.558Z,10.90
2018-11-06T07:52:31.260Z,8.83
2018-11-06T07:55:03.898Z,8.23
2018-11-06T07:57:36.725Z,9.10
2018-11-06T08:00:14.764Z,9.07
2018-11-06T08:02:48.143Z,6.90
2018-11-06T08:05:20.679Z,7.50
2018-11-06T08:07:53.911Z,6.57
2018-11-06T08:10:26.862Z,5.43
2018-11-06T08:12:59.558Z,6.10
2018-11-06T08:15:31.902Z,6.93
2018-11-06T08:18:04.123Z,6.30
2018-11-06T08:20:36.998Z,5.60
2018-11-06T08:23:09.442Z,6.17
2018-11-06T08:25:42.195Z,6.73
2018-11-06T08:28:14.507Z,5.40
2018-11-06T08:30:47.145Z,5.47
2018-11-06T08:33:19.826Z,5.60
2018-11-06T08:35:52.916Z,6.00
2018-11-06T08:38:25.682Z,5.97
2018-11-06T08:40:58.533Z,6.80
2018-11-06T08:43:31.070Z,6.10
2018-11-06T08:46:03.643Z,6.30
2018-11-06T08:48:36.895Z,6.03
2018-11-06T08:51:09.370Z,6.43
2018-11-06T08:53:42.544Z,6.70
2018-11-06T08:56:15.356Z,6.00
2018-11-06T08:58:48.094Z,6.63
2018-11-06T09:01:21.228Z,6.33
2018-11-06T09:03:54.098Z,7.37
2018-11-06T09:06:27.290Z,7.37
2018-11-06T09:09:00.376Z,6.83
2018-11-06T09:11:32.820Z,7.53
2018-11-06T09:14:06.031Z,7.60
2018-11-06T09:16:39.173Z,6.83
2018-11-06T09:19:11.591Z,6.77
2018-11-06T09:21:44.492Z,7.60
2018-11-06T09:24:16.986Z,7.33
2018-11-06T09:26:49.354Z,7.37
2018-11-06T09:29:22.351Z,6.77
2018-11-06T09:31:55.644Z,6.70
2018-11-06T09:34:28.214Z,6.40
2018-11-06T09:37:00.958Z,7.53
2018-11-06T09:39:34.241Z,6.67
2018-11-06T09:42:06.675Z,6.37
2018-11-06T09:44:40.173Z,6.80
2018-11-06T09:47:12.789Z,7.40
2018-11-06T09:49:45.729Z,6.40
2018-11-06T09:52:18.422Z,7.37
2018-11-06T09:54:50.972Z,7.90
2018-11-06T09:57:23.629Z,7.50
2018-11-06T09:59:56.301Z,8.13
2018-11-06T10:02:29.273Z,9.10
2018-11-06T10:05:02.391Z,8.60
2018-11-06T10:07:35.206Z,8.93
2018-11-06T10:10:08.870Z,8.20
2018-11-06T10:12:42.119Z,10.03
2018-11-06T10:15:17.152Z,7.80
2018-11-06T10:17:50.569Z,8.53
2018-11-06T10:20:23.605Z,10.27
2018-11-06T10:22:56.342Z,11.30
2018-11-06T10:25:29.294Z,10.90
2018-11-06T10:28:02.406Z,11.90
2018-11-06T10:30:35.182Z,12.17
2018-11-06T10:33:08.115Z,8.97
2018-11-06T10:35:40.847Z,7.93
2018-11-06T10:38:13.448Z,9.60
2018-11-06T10:40:45.921Z,8.17
2018-11-06T10:43:18.718Z,6.90
2018-11-06T10:45:51.706Z,9.90
2018-11-06T10:48:24.135Z,8.17
2018-11-06T10:50:56.606Z,10.67
2018-11-06T10:53:29.545Z,9.87
2018-11-06T10:56:02.313Z,8.37
2018-11-06T10:58:34.652Z,9.83
2018-11-06T11:01:12.487Z,8.10
2018-11-06T11:03:49.375Z,10.07
2018-11-06T11:06:22.231Z,11.37
2018-11-06T11:08:55.270Z,10.03
2018-11-06T11:11:28.534Z,11.67
2018-11-06T11:14:00.984Z,11.57
2018-11-06T11:16:33.744Z,9.00
2018-11-06T11:19:06.893Z,13.20
2018-11-06T11:21:39.328Z,11.50
2018-11-06T11:24:11.899Z,11.10
2018-11-06T11:26:45.195Z,9.17
2018-11-06T11:29:18.018Z,10.43
2018-11-06T11:31:51.010Z,11.67
2018-11-06T11:34:23.735Z,12.87
2018-11-06T11:36:56.499Z,14.40
2018-11-06T11:39:28.978Z,11.23
2018-11-06T11:42:02.090Z,9.93
2018-11-06T11:44:34.922Z,9.27
2018-11-06T11:47:07.678Z,10.30
2018-11-06T11:49:40.624Z,11.00
2018-11-06T11:52:13.024Z,9.97
2018-11-06T11:54:45.895Z,10.20
2018-11-06T11:57:18.418Z,12.00
2018-11-06T11:59:50.834Z,9.43
2018-11-06T12:02:23.889Z,9.47
2018-11-06T12:04:56.552Z,11.80
2018-11-06T12:07:29.773Z,11.67
2018-11-06T12:10:02.629Z,18.93
2018-11-06T12:12:35.418Z,10.82
2018-11-06T12:15:09.093Z,11.55
2018-11-06T12:17:42.567Z,10.90
2018-11-06T12:20:15.635Z,10.10
2018-11-06T12:22:48.680Z,9.93
2018-11-06T12:25:22.696Z,10.20
2018-11-06T12:27:55.423Z,10.35
2018-11-06T12:30:28.150Z,12.13
2018-11-06T12:33:01.195Z,12.60
2018-11-06T12:35:34.308Z,10.48
2018-11-06T12:38:07.514Z,12.70
2018-11-06T12:40:40.200Z,21.40
2018-11-06T12:43:12.671Z,11.97
2018-11-06T12:45:46.053Z,12.03
2018-11-06T12:48:19.643Z,13.65
2018-11-06T12:50:52.325Z,15.35
2018-11-06T12:53:25.364Z,19.98
2018-11-06T12:55:58.340Z,13.30
2018-11-06T12:58:31.055Z,19.07
2018-11-06T13:01:03.740Z,21.40
2018-11-06T13:03:36.544Z,12.63
2018-11-06T13:06:09.414Z,16.37
2018-11-06T13:08:42.398Z,21.35
2018-11-06T13:11:14.920Z,23.60
2018-11-06T13:13:47.762Z,19.42
2018-11-06T13:16:20.746Z,19.27
2018-11-06T13:18:53.562Z,24.65
2018-11-06T13:21:26.127Z,31.07
2018-11-06T13:23:58.770Z,32.40
2018-11-06T13:26:31.799Z,39.55
2018-11-06T13:29:04.482Z,27.95
2018-11-06T13:31:37.012Z,27.32
2018-11-06T13:34:09.530Z,25.65
2018-11-06T13:36:42.050Z,16.30
2018-11-06T13:39:15.293Z,21.50
2018-11-06T13:41:47.723Z,27.98
2018-11-06T13:44:20.603Z,25.60
2018-11-06T13:46:53.360Z,27.00
2018-11-06T13:49:26.372Z,27.90
2018-11-06T13:51:59.366Z,28.45
2018-11-06T13:54:31.887Z,24.72
2018-11-06T13:57:04.892Z,24.40
2018-11-06T13:59:37.706Z,26.70
2018-11-06T14:02:10.592Z,28.65
2018-11-06T14:04:43.145Z,27.98
2018-11-06T14:07:16.060Z,32.17
2018-11-06T14:09:48.825Z,72.55
2018-11-06T14:12:21.279Z,67.08
2018-11-06T14:14:53.768Z,58.48
2018-11-06T14:17:26.190Z,60.12
2018-11-06T14:19:59.382Z,43.42
2018-11-06T14:22:32.580Z,71.47
2018-11-06T14:25:04.783Z,100.47
2018-11-06T14:27:37.645Z,100.38
2018-11-06T14:30:13.565Z,31.93
2018-11-06T14:32:46.127Z,38.58
2018-11-06T14:35:20.192Z,22.42
2018-11-06T14:37:53.034Z,25.08
2018-11-06T14:40:25.386Z,20.17
2018-11-06T14:42:58.391Z,21.57
2018-11-06T14:45:31.130Z,21.77
2018-11-06T14:48:03.853Z,30.57
2018-11-06T14:50:37.491Z,23.38
2018-11-06T14:53:10.459Z,22.07
2018-11-06T14:55:43.262Z,25.20
2018-11-06T14:58:15.710Z,22.80
2018-11-06T15:00:48.275Z,30.50
2018-11-06T15:03:20.828Z,28.40
2018-11-06T15:05:53.001Z,26.33
2018-11-06T15:08:25.454Z,43.90
2018-11-06T15:10:57.945Z,33.28
2018-11-06T15:13:30.856Z,44.83
2018-11-06T15:16:03.781Z,27.50
2018-11-06T15:18:36.278Z,45.12
2018-11-06T15:21:08.968Z,33.58
2018-11-06T15:23:41.419Z,33.23
2018-11-06T15:26:14.042Z,42.60
2018-11-06T15:28:46.672Z,32.50
2018-11-06T15:31:18.802Z,28.40
2018-11-06T15:33:51.773Z,47.23
2018-11-06T15:36:24.224Z,30.70
2018-11-06T15:38:58.566Z,44.45
2018-11-06T15:41:31.589Z,30.97
2018-11-06T15:44:04.525Z,47.50
2018-11-06T15:46:37.393Z,36.15
2018-11-06T15:49:10.409Z,43.33
2018-11-06T15:51:43.878Z,31.17
2018-11-06T15:54:16.723Z,35.50
2018-11-06T15:56:49.601Z,36.55
2018-11-06T15:59:22.319Z,28.20
2018-11-06T16:01:54.954Z,31.40
2018-11-06T16:04:27.653Z,34.60
2018-11-06T16:07:00.621Z,45.37
2018-11-06T16:09:33.291Z,44.30
2018-11-06T16:12:05.722Z,35.17
2018-11-06T16:14:38.605Z,39.20
2018-11-06T16:17:11.836Z,29.25
2018-11-06T16:19:44.713Z,28.73
2018-11-06T16:22:17.805Z,26.13
2018-11-06T16:24:51.147Z,23.10
2018-11-06T16:27:23.569Z,24.20
2018-11-06T16:29:56.532Z,24.60
2018-11-06T16:32:29.447Z,23.33
2018-11-06T16:35:02.287Z,22.87
2018-11-06T16:37:35.057Z,23.40
2018-11-06T16:40:08.432Z,24.90
2018-11-06T16:42:41.495Z,22.33
2018-11-06T16:45:15.977Z,23.00
2018-11-06T16:47:49.683Z,19.80
2018-11-06T16:50:23.074Z,18.80
2018-11-06T16:52:56.317Z,19.87
2018-11-06T16:55:29.215Z,21.17
2018-11-06T16:58:01.732Z,19.53
2018-11-06T17:00:34.496Z,17.50
2018-11-06T17:03:07.657Z,20.07
2018-11-06T17:05:40.810Z,21.80
2018-11-06T17:08:13.448Z,17.97
2018-11-06T17:10:45.661Z,19.10
2018-11-06T17:13:18.915Z,15.67
2018-11-06T17:15:51.699Z,17.43
2018-11-06T17:18:24.190Z,17.70
2018-11-06T17:20:57.517Z,15.90
2018-11-06T17:23:30.531Z,16.70
2018-11-06T17:26:03.172Z,15.00
2018-11-06T17:28:36.250Z,14.50
2018-11-06T17:31:08.846Z,13.90
2018-11-06T17:33:41.337Z,11.83
2018-11-06T17:36:13.861Z,9.93
2018-11-06T17:38:46.449Z,12.00
2018-11-06T17:41:19.497Z,11.00
2018-11-06T17:43:52.273Z,11.63
2018-11-06T17:46:24.780Z,10.63
2018-11-06T17:48:57.453Z,10.27
2018-11-06T17:51:30.334Z,11.53
2018-11-06T17:54:03.188Z,11.13
2018-11-06T17:56:36.204Z,10.87
2018-11-06T17:59:08.783Z,11.73
2018-11-06T18:01:41.877Z,12.73
2018-11-06T18:04:14.886Z,11.07
2018-11-06T18:06:47.507Z,11.63
2018-11-06T18:09:20.542Z,12.20
2018-11-06T18:11:53.742Z,10.10
2018-11-06T18:14:26.559Z,9.97
2018-11-06T18:16:59.259Z,12.07
2018-11-06T18:19:32.867Z,12.90
2018-11-06T18:22:05.548Z,11.07
2018-11-06T18:24:38.323Z,9.40
2018-11-06T18:27:11.038Z,10.10
2018-11-06T18:29:43.719Z,8.97
2018-11-06T18:32:16.689Z,8.00
2018-11-06T18:34:49.749Z,9.37
2018-11-06T18:37:22.613Z,10.57
2018-11-06T18:39:55.765Z,9.17
2018-11-06T18:42:28.641Z,8.87
2018-11-06T18:45:01.459Z,8.13
2018-11-06T18:47:34.312Z,6.80
2018-11-06T18:50:07.996Z,6.50
2018-11-06T18:52:40.989Z,7.20
2018-11-06T18:55:13.462Z,6.43
2018-11-06T18:57:46.445Z,6.87
2018-11-06T19:00:21.105Z,6.23
2018-11-06T19:02:54.453Z,7.60
2018-11-06T19:05:27.467Z,5.80
2018-11-06T19:08:00.673Z,6.57
2018-11-06T19:10:33.478Z,6.47
2018-11-06T19:13:06.614Z,6.97
2018-11-06T19:15:39.768Z,7.63
2018-11-06T19:18:12.382Z,6.90
2018-11-06T19:20:45.382Z,6.37
2018-11-06T19:23:17.886Z,6.60
2018-11-06T19:25:50.512Z,5.70
2018-11-06T19:28:22.761Z,6.00
2018-11-06T19:30:55.145Z,7.10
2018-11-06T19:33:27.877Z,5.03
2018-11-06T19:36:00.349Z,4.73
2018-11-06T19:38:33.118Z,4.27
2018-11-06T19:41:06.183Z,3.73
2018-11-06T19:43:39.323Z,3.60
2018-11-06T19:46:11.798Z,3.90
2018-11-06T19:48:44.633Z,4.80
2018-11-06T19:51:17.305Z,4.60
2018-11-06T19:53:50.191Z,3.80
2018-11-06T19:56:23.694Z,3.37
2018-11-06T19:58:56.527Z,4.07
2018-11-06T20:01:29.671Z,4.00
2018-11-06T20:04:02.479Z,2.97
2018-11-06T20:06:35.317Z,3.60
2018-11-06T20:09:09.974Z,3.80
2018-11-06T20:11:42.810Z,3.63
2018-11-06T20:14:16.018Z,4.40
2018-11-06T20:16:48.379Z,3.70
2018-11-06T20:19:21.310Z,3.37
2018-11-06T20:21:54.637Z,3.40
2018-11-06T20:24:26.977Z,2.93
2018-11-06T20:26:59.352Z,3.03
2018-11-06T20:29:32.525Z,3.07
2018-11-06T20:32:05.392Z,3.70
2018-11-06T20:34:38.049Z,3.70
2018-11-06T20:37:10.401Z,3.70
2018-11-06T20:39:42.862Z,3.30
2018-11-06T20:42:15.669Z,3.83
2018-11-06T20:44:48.196Z,4.50
2018-11-06T20:47:22.928Z,4.30
2018-11-06T20:49:56.004Z,3.73
2018-11-06T20:52:28.719Z,4.40
2018-11-06T20:55:01.232Z,3.77
2018-11-06T20:57:34.917Z,4.33
2018-11-06T21:00:09.077Z,4.00
2018-11-06T21:02:41.920Z,3.40
2018-11-06T21:05:14.884Z,4.20
2018-11-06T21:07:48.356Z,3.47
2018-11-06T21:10:22.194Z,4.07
2018-11-06T21:12:55.206Z,4.07
2018-11-06T21:15:27.678Z,3.80
2018-11-06T21:18:00.782Z,4.40
2018-11-06T21:20:33.377Z,3.60
2018-11-06T21:23:06.239Z,3.00
2018-11-06T21:25:38.939Z,3.40
2018-11-06T21:28:11.589Z,2.83
2018-11-06T21:30:44.170Z,2.50
2018-11-06T21:33:16.856Z,2.50
2018-11-06T21:35:49.170Z,2.70
2018-11-06T21:38:21.457Z,2.57
2018-11-06T21:40:54.652Z,2.77
2018-11-06T21:43:27.463Z,2.60
2018-11-06T21:46:00.260Z,2.73
2018-11-06T21:48:33.165Z,2.73
2018-11-06T21:51:05.872Z,3.13
2018-11-06T21:53:38.504Z,3.07
2018-11-06T21:56:10.822Z,2.40
2018-11-06T21:58:43.530Z,2.80
2018-11-06T22:01:15.969Z,3.40
2018-11-06T22:10:37.008Z,2.43
2018-11-06T22:13:09.467Z,3.30
2018-11-06T22:15:41.957Z,2.87
2018-11-06T22:18:14.370Z,3.80
2018-11-06T22:20:46.940Z,2.80
2018-11-06T22:23:19.418Z,3.37
2018-11-06T22:25:52.461Z,2.97
2018-11-06T22:28:25.073Z,3.17
2018-11-06T22:30:57.586Z,2.53
2018-11-06T22:33:29.963Z,3.07
2018-11-06T22:36:02.793Z,3.37
2018-11-06T22:38:35.079Z,3.00
2018-11-06T22:41:07.723Z,3.33
2018-11-06T22:43:40.317Z,3.33
2018-11-06T22:46:12.805Z,3.60
2018-11-06T22:48:45.396Z,3.50
2018-11-06T22:51:18.257Z,3.10
2018-11-06T22:53:50.866Z,3.00
2018-11-06T22:56:23.429Z,3.10
2018-11-06T22:58:56.561Z,3.13
2018-11-06T23:01:28.850Z,3.73
2018-11-06T23:04:01.409Z,3.37
2018-11-06T23:06:33.792Z,3.13
2018-11-06T23:09:06.638Z,2.90
2018-11-06T23:11:39.222Z,3.13
2018-11-06T23:14:11.810Z,4.10
2018-11-06T23:16:44.408Z,2.77
2018-11-06T23:19:17.011Z,3.10
2018-11-06T23:21:49.833Z,3.00
2018-11-06T23:24:22.361Z,2.20
2018-11-06T23:26:54.623Z,1.93
2018-11-06T23:29:27.152Z,2.90
2018-11-06T23:31:59.595Z,2.97
2018-11-06T23:34:32.143Z,2.60
2018-11-06T23:37:04.990Z,2.93
2018-11-06T23:39:38.298Z,2.90
2018-11-06T23:42:10.738Z,3.10
2018-11-06T23:44:43.306Z,2.80
2018-11-06T23:47:16.007Z,2.60
2018-11-06T23:49:48.405Z,2.90
2018-11-06T23:52:20.697Z,2.63
2018-11-06T23:54:53.399Z,2.80
2018-11-06T23:57:26.241Z,2.50
